Time,TemperatureF,DewpointF,PressureIn,WindDirection,WindDirectionDegrees,WindSpeedMPH,WindSpeedGustMPH,Humidity,HourlyPrecipIn,Conditions,Clouds,dailyrainin,SoftwareType,DateUTC
2013-06-04 00:02:00,49.0,34.0,30.03,NNW,328,17.0,26.0,56,0.00,,,0.00,,2013-06-04 06:02:00,
2013-06-04 00:12:00,49.0,34.0,30.03,NNW,328,17.0,26.0,56,0.00,,,0.00,,2013-06-04 06:12:00,
2013-06-04 00:22:00,49.0,34.0,30.03,NNW,328,20.0,28.0,57,0.00,,,0.00,,2013-06-04 06:22:00,
2013-06-04 00:32:00,49.0,34.0,30.03,NW,304,17.0,24.0,56,0.00,,,0.00,,2013-06-04 06:32:00,
2013-06-04 00:42:00,49.0,34.0,30.03,NW,304,17.0,24.0,56,0.00,,,0.00,,2013-06-04 06:42:00,
2013-06-04 00:52:00,48.0,35.0,30.04,WNW,290,17.0,21.0,61,0.00,,,0.00,,2013-06-04 06:52:00,
2013-06-04 01:02:00,48.0,35.0,30.04,NW,312,18.0,23.0,60,0.00,,,0.00,,2013-06-04 07:02:00,
2013-06-04 01:12:00,48.0,35.0,30.04,NW,312,18.0,23.0,60,0.00,,,0.00,,2013-06-04 07:12:00,
2013-06-04 01:22:00,48.0,35.0,30.04,NW,309,17.0,22.0,60,0.00,,,0.00,,2013-06-04 07:22:00,
2013-06-04 01:32:00,48.0,35.0,30.04,NW,312,21.0,26.0,61,0.00,,,0.00,,2013-06-04 07:32:00,
2013-06-04 01:42:00,48.0,35.0,30.04,NW,312,21.0,26.0,61,0.00,,,0.00,,2013-06-04 07:42:00,
2013-06-04 01:52:00,48.0,35.0,30.03,NW,312,26.0,33.0,60,0.00,,,0.00,,2013-06-04 07:52:00,
2013-06-04 02:02:00,47.0,34.0,30.03,NW,316,22.0,29.0,61,0.00,,,0.00,,2013-06-04 08:02:00,
2013-06-04 02:12:00,47.0,34.0,30.03,NW,316,22.0,29.0,61,0.00,,,0.00,,2013-06-04 08:12:00,
2013-06-04 02:22:00,47.0,35.0,30.04,NW,325,21.0,29.0,62,0.00,,,0.00,,2013-06-04 08:22:00,
2013-06-04 02:32:00,47.0,35.0,30.04,NW,317,20.0,27.0,62,0.00,,,0.00,,2013-06-04 08:32:00,
2013-06-04 02:42:00,47.0,35.0,30.04,NW,317,20.0,27.0,62,0.00,,,0.00,,2013-06-04 08:42:00,
2013-06-04 02:52:00,47.0,35.0,30.04,NW,320,22.0,28.0,62,0.00,,,0.00,,2013-06-04 08:52:00,
2013-06-04 03:01:00,47.0,35.0,30.04,NW,321,23.0,28.0,62,0.00,,,0.00,,2013-06-04 09:01:00,
2013-06-04 03:12:00,47.0,35.0,30.04,NW,321,23.0,28.0,62,0.00,,,0.00,,2013-06-04 09:12:00,
2013-06-04 03:22:00,47.0,35.0,30.06,NW,318,19.0,26.0,62,0.00,,,0.00,,2013-06-04 09:22:00,
2013-06-04 03:32:00,47.0,34.0,30.06,NW,306,21.0,28.0,61,0.00,,,0.00,,2013-06-04 09:32:00,
2013-06-04 03:42:00,47.0,34.0,30.06,NW,306,21.0,28.0,61,0.00,,,0.00,,2013-06-04 09:42:00,
2013-06-04 03:53:00,47.0,35.0,30.07,NW,309,20.0,26.0,62,0.00,,,0.00,,2013-06-04 09:53:00,
2013-06-04 04:02:00,46.0,35.0,30.07,WNW,296,19.0,24.0,64,0.00,,,0.00,,2013-06-04 10:02:00,
2013-06-04 04:12:00,46.0,35.0,30.07,WNW,296,19.0,24.0,64,0.00,,,0.00,,2013-06-04 10:12:00,
2013-06-04 04:22:00,46.0,35.0,30.07,WNW,302,21.0,28.0,65,0.00,,,0.00,,2013-06-04 10:22:00,
2013-06-04 04:32:00,45.0,35.0,30.08,NW,307,19.0,27.0,68,0.00,,,0.00,,2013-06-04 10:32:00,
2013-06-04 04:42:00,45.0,35.0,30.08,NW,307,19.0,27.0,68,0.00,,,0.00,,2013-06-04 10:42:00,
2013-06-04 04:52:00,44.0,35.0,30.09,NW,305,17.0,23.0,70,0.00,,,0.00,,2013-06-04 10:52:00,
2013-06-04 05:02:00,43.0,35.0,30.09,WNW,290,14.0,21.0,73,0.00,,,0.00,,2013-06-04 11:02:00,
2013-06-04 05:12:00,43.0,35.0,30.09,WNW,290,14.0,21.0,73,0.00,,,0.00,,2013-06-04 11:12:00,
2013-06-04 05:22:00,43.0,35.0,30.09,NW,320,17.0,24.0,73,0.00,,,0.00,,2013-06-04 11:22:00,
2013-06-04 05:32:00,43.0,35.0,30.10,NW,304,16.0,21.0,72,0.00,,,0.00,,2013-06-04 11:32:00,
2013-06-04 05:42:00,43.0,35.0,30.10,NW,304,16.0,21.0,72,0.00,,,0.00,,2013-06-04 11:42:00,
2013-06-04 05:52:00,44.0,34.0,30.09,NW,309,19.0,24.0,69,0.00,,,0.00,,2013-06-04 11:52:00,
2013-06-04 06:01:00,44.0,34.0,30.10,WNW,297,20.0,24.0,68,0.00,,,0.00,,2013-06-04 12:01:00,
2013-06-04 06:12:00,44.0,34.0,30.10,WNW,297,20.0,24.0,68,0.00,,,0.00,,2013-06-04 12:12:00,
2013-06-04 06:22:00,43.0,34.0,30.10,WNW,301,18.0,25.0,70,0.00,,,0.00,,2013-06-04 12:22:00,
2013-06-04 06:32:00,44.0,34.0,30.11,NW,306,17.0,23.0,68,0.00,,,0.00,,2013-06-04 12:32:00,
2013-06-04 06:42:00,44.0,34.0,30.11,NW,306,17.0,23.0,68,0.00,,,0.00,,2013-06-04 12:42:00,
2013-06-04 06:52:00,44.0,34.0,30.11,NW,317,18.0,22.0,68,0.00,,,0.00,,2013-06-04 12:52:00,
2013-06-04 07:02:00,44.0,34.0,30.12,WNW,293,11.0,18.0,69,0.00,,,0.00,,2013-06-04 13:02:00,
2013-06-04 07:12:00,44.0,34.0,30.12,WNW,293,11.0,18.0,69,0.00,,,0.00,,2013-06-04 13:12:00,
2013-06-04 07:22:00,45.0,35.0,30.13,WNW,298,13.0,16.0,67,0.00,,,0.00,,2013-06-04 13:22:00,
2013-06-04 07:32:00,45.0,35.0,30.13,WNW,284,14.0,18.0,67,0.00,,,0.00,,2013-06-04 13:32:00,
2013-06-04 07:42:00,45.0,35.0,30.13,WNW,284,14.0,18.0,67,0.00,,,0.00,,2013-06-04 13:42:00,
2013-06-04 07:52:00,46.0,35.0,30.13,WNW,298,14.0,20.0,66,0.00,,,0.00,,2013-06-04 13:52:00,
2013-06-04 08:02:00,47.0,35.0,30.14,NW,317,17.0,24.0,63,0.00,,,0.00,,2013-06-04 14:02:00,
2013-06-04 08:12:00,47.0,35.0,30.14,NW,317,17.0,24.0,63,0.00,,,0.00,,2013-06-04 14:12:00,
2013-06-04 08:22:00,47.0,35.0,30.14,WNW,303,14.0,21.0,64,0.00,,,0.00,,2013-06-04 14:22:00,
2013-06-04 08:32:00,47.0,35.0,30.15,NW,318,14.0,21.0,64,0.00,,,0.00,,2013-06-04 14:32:00,
2013-06-04 08:42:00,47.0,35.0,30.15,NW,318,14.0,21.0,64,0.00,,,0.00,,2013-06-04 14:42:00,
2013-06-04 08:52:00,47.0,35.0,30.15,NW,325,14.0,20.0,64,0.00,,,0.00,,2013-06-04 14:52:00,
2013-06-04 09:02:00,48.0,36.0,30.15,NW,304,15.0,21.0,64,0.00,,,0.00,,2013-06-04 15:02:00,
2013-06-04 09:11:00,48.0,36.0,30.15,NW,304,15.0,21.0,64,0.00,,,0.00,,2013-06-04 15:11:00,
2013-06-04 09:22:00,47.0,35.0,30.15,NNW,333,16.0,21.0,64,0.00,,,0.00,,2013-06-04 15:22:00,
2013-06-04 09:33:00,47.0,35.0,30.15,NNW,334,17.0,21.0,64,0.00,,,0.00,,2013-06-04 15:33:00,
2013-06-04 09:42:00,47.0,35.0,30.15,NNW,334,17.0,21.0,64,0.00,,,0.00,,2013-06-04 15:42:00,
2013-06-04 09:53:00,48.0,37.0,30.15,NW,311,16.0,24.0,66,0.00,,,0.00,,2013-06-04 15:53:00,
2013-06-04 10:03:00,47.0,35.0,30.16,NW,309,19.0,25.0,64,0.00,,,0.00,,2013-06-04 16:03:00,
2013-06-04 10:12:00,47.0,35.0,30.16,NW,309,19.0,25.0,64,0.00,,,0.00,,2013-06-04 16:12:00,
2013-06-04 10:22:00,47.0,36.0,30.16,NNW,333,18.0,26.0,66,0.00,,,0.00,,2013-06-04 16:22:00,
2013-06-04 10:32:00,47.0,36.0,30.16,NW,318,18.0,26.0,66,0.00,,,0.00,,2013-06-04 16:32:00,
2013-06-04 10:42:00,47.0,36.0,30.16,NW,318,18.0,26.0,66,0.00,,,0.00,,2013-06-04 16:42:00,
2013-06-04 10:53:00,48.0,37.0,30.16,NW,309,17.0,23.0,66,0.00,,,0.00,,2013-06-04 16:53:00,
2013-06-04 11:02:00,48.0,36.0,30.16,NW,309,19.0,27.0,63,0.00,,,0.00,,2013-06-04 17:02:00,
2013-06-04 11:12:00,48.0,36.0,30.16,NW,309,19.0,27.0,63,0.00,,,0.00,,2013-06-04 17:12:00,
2013-06-04 11:22:00,49.0,37.0,30.16,NW,319,16.0,25.0,63,0.00,,,0.00,,2013-06-04 17:22:00,
2013-06-04 11:32:00,49.0,37.0,30.17,NW,317,18.0,26.0,62,0.00,,,0.00,,2013-06-04 17:32:00,
2013-06-04 11:42:00,49.0,37.0,30.17,NW,317,18.0,26.0,62,0.00,,,0.00,,2013-06-04 17:42:00,
2013-06-04 11:52:00,50.0,37.0,30.16,NNW,340,17.0,24.0,61,0.00,,,0.00,,2013-06-04 17:52:00,
2013-06-04 12:02:00,50.0,38.0,30.17,NW,320,20.0,32.0,62,0.00,,,0.00,,2013-06-04 18:02:00,
2013-06-04 12:12:00,50.0,38.0,30.17,NW,320,20.0,32.0,62,0.00,,,0.00,,2013-06-04 18:12:00,
2013-06-04 12:22:00,50.0,37.0,30.17,NW,318,20.0,26.0,60,0.00,,,0.00,,2013-06-04 18:22:00,
2013-06-04 12:32:00,50.0,37.0,30.17,WNW,302,14.0,21.0,60,0.00,,,0.00,,2013-06-04 18:32:00,
2013-06-04 12:42:00,50.0,37.0,30.17,WNW,302,14.0,21.0,60,0.00,,,0.00,,2013-06-04 18:42:00,
2013-06-04 12:52:00,51.0,37.0,30.17,NW,319,14.0,21.0,58,0.00,,,0.00,,2013-06-04 18:52:00,
2013-06-04 13:02:00,51.0,36.0,30.17,NW,323,15.0,23.0,56,0.00,,,0.00,,2013-06-04 19:02:00,
2013-06-04 13:12:00,51.0,36.0,30.17,NW,323,15.0,23.0,56,0.00,,,0.00,,2013-06-04 19:12:00,
2013-06-04 13:22:00,52.0,36.0,30.17,NW,305,20.0,28.0,54,0.00,,,0.00,,2013-06-04 19:22:00,
2013-06-04 13:32:00,53.0,37.0,30.18,NW,319,20.0,28.0,55,0.00,,,0.00,,2013-06-04 19:32:00,
2013-06-04 13:42:00,53.0,37.0,30.18,NW,319,20.0,28.0,55,0.00,,,0.00,,2013-06-04 19:42:00,
2013-06-04 13:52:00,52.0,36.0,30.18,WNW,298,21.0,27.0,54,0.00,,,0.00,,2013-06-04 19:52:00,
2013-06-04 14:02:00,53.0,37.0,30.18,NW,313,20.0,28.0,55,0.00,,,0.00,,2013-06-04 20:02:00,
2013-06-04 14:12:00,53.0,37.0,30.18,NW,313,20.0,28.0,55,0.00,,,0.00,,2013-06-04 20:12:00,
2013-06-04 14:22:00,52.0,36.0,30.18,WNW,298,19.0,27.0,54,0.00,,,0.00,,2013-06-04 20:22:00,
2013-06-04 14:32:00,53.0,37.0,30.19,NNW,327,17.0,27.0,54,0.00,,,0.00,,2013-06-04 20:32:00,
2013-06-04 14:42:00,53.0,37.0,30.19,NNW,327,17.0,27.0,54,0.00,,,0.00,,2013-06-04 20:42:00,
2013-06-04 14:52:00,52.0,36.0,30.19,NW,307,18.0,24.0,54,0.00,,,0.00,,2013-06-04 20:52:00,
2013-06-04 15:01:00,52.0,36.0,30.19,NW,321,16.0,23.0,54,0.00,,,0.00,,2013-06-04 21:01:00,
2013-06-04 15:12:00,52.0,36.0,30.19,NW,321,16.0,23.0,54,0.00,,,0.00,,2013-06-04 21:12:00,
2013-06-04 15:22:00,53.0,36.0,30.19,NW,311,15.0,24.0,53,0.00,,,0.00,,2013-06-04 21:22:00,
2013-06-04 15:33:00,53.0,36.0,30.19,NW,326,17.0,24.0,53,0.00,,,0.00,,2013-06-04 21:33:00,
2013-06-04 15:42:00,53.0,36.0,30.19,NW,326,17.0,24.0,53,0.00,,,0.00,,2013-06-04 21:42:00,
2013-06-04 15:53:00,53.0,36.0,30.19,NW,307,15.0,23.0,53,0.00,,,0.00,,2013-06-04 21:53:00,
2013-06-04 16:02:00,53.0,37.0,30.19,WNW,302,14.0,22.0,55,0.00,,,0.00,,2013-06-04 22:02:00,
2013-06-04 16:12:00,53.0,37.0,30.19,WNW,302,14.0,22.0,55,0.00,,,0.00,,2013-06-04 22:12:00,
2013-06-04 16:22:00,54.0,37.0,30.19,NW,317,15.0,24.0,53,0.00,,,0.00,,2013-06-04 22:22:00,
2013-06-04 16:32:00,53.0,37.0,30.20,NW,318,15.0,22.0,55,0.00,,,0.00,,2013-06-04 22:32:00,
2013-06-04 16:42:00,53.0,37.0,30.20,NW,318,15.0,22.0,55,0.00,,,0.00,,2013-06-04 22:42:00,
2013-06-04 16:52:00,54.0,37.0,30.19,NW,316,19.0,26.0,53,0.00,,,0.00,,2013-06-04 22:52:00,
2013-06-04 17:02:00,55.0,38.0,30.19,NW,323,16.0,22.0,52,0.00,,,0.00,,2013-06-04 23:02:00,
2013-06-04 17:12:00,55.0,38.0,30.19,NW,323,16.0,22.0,52,0.00,,,0.00,,2013-06-04 23:12:00,
2013-06-04 17:22:00,54.0,37.0,30.19,NW,324,14.0,22.0,53,0.00,,,0.00,,2013-06-04 23:22:00,
2013-06-04 17:32:00,54.0,37.0,30.19,NW,320,16.0,22.0,52,0.00,,,0.00,,2013-06-04 23:32:00,
2013-06-04 17:42:00,54.0,37.0,30.19,NW,320,16.0,22.0,52,0.00,,,0.00,,2013-06-04 23:42:00,
2013-06-04 17:52:00,55.0,39.0,30.19,NNW,336,18.0,26.0,54,0.00,,,0.00,,2013-06-04 23:52:00,
2013-06-04 18:02:00,54.0,37.0,30.20,NW,317,17.0,23.0,52,0.00,,,0.00,,2013-06-05 00:02:00,
2013-06-04 18:12:00,54.0,37.0,30.20,NW,317,17.0,23.0,52,0.00,,,0.00,,2013-06-05 00:12:00,
2013-06-04 18:22:00,53.0,37.0,30.20,NNW,327,13.0,23.0,54,0.00,,,0.00,,2013-06-05 00:22:00,
2013-06-04 18:32:00,53.0,37.0,30.20,NNW,336,15.0,23.0,54,0.00,,,0.00,,2013-06-05 00:32:00,
2013-06-04 18:42:00,53.0,37.0,30.20,NNW,336,15.0,23.0,54,0.00,,,0.00,,2013-06-05 00:42:00,
2013-06-04 18:52:00,53.0,36.0,30.20,NW,322,13.0,23.0,53,0.00,,,0.00,,2013-06-05 00:52:00,
2013-06-04 19:02:00,53.0,37.0,30.20,WNW,299,13.0,25.0,54,0.00,,,0.00,,2013-06-05 01:02:00,
2013-06-04 19:12:00,53.0,37.0,30.20,WNW,299,13.0,25.0,54,0.00,,,0.00,,2013-06-05 01:12:00,
2013-06-04 19:22:00,53.0,37.0,30.20,WNW,301,15.0,22.0,55,0.00,,,0.00,,2013-06-05 01:22:00,
2013-06-04 19:32:00,54.0,37.0,30.21,NW,312,17.0,26.0,53,0.00,,,0.00,,2013-06-05 01:32:00,
2013-06-04 19:42:00,54.0,37.0,30.21,NW,312,17.0,26.0,53,0.00,,,0.00,,2013-06-05 01:42:00,
2013-06-04 19:52:00,54.0,38.0,30.21,NNW,329,13.0,20.0,54,0.00,,,0.00,,2013-06-05 01:52:00,
2013-06-04 20:02:00,54.0,37.0,30.21,NNW,327,16.0,24.0,52,0.00,,,0.00,,2013-06-05 02:02:00,
2013-06-04 20:11:00,54.0,37.0,30.21,NNW,327,16.0,24.0,52,0.00,,,0.00,,2013-06-05 02:11:00,
2013-06-04 20:21:00,53.0,36.0,30.22,NW,309,14.0,19.0,53,0.00,,,0.00,,2013-06-05 02:21:00,
2013-06-04 20:32:00,52.0,36.0,30.22,WNW,292,11.0,16.0,55,0.00,,,0.00,,2013-06-05 02:32:00,
2013-06-04 20:42:00,52.0,37.0,30.23,West,272,6.0,15.0,56,0.00,,,0.00,,2013-06-05 02:42:00,
2013-06-04 20:52:00,52.0,37.0,30.23,West,272,6.0,15.0,56,0.00,,,0.00,,2013-06-05 02:52:00,
2013-06-04 21:02:00,51.0,37.0,30.23,WNW,282,9.0,12.0,58,0.00,,,0.00,,2013-06-05 03:02:00,
2013-06-04 21:12:00,51.0,37.0,30.23,WNW,282,9.0,12.0,58,0.00,,,0.00,,2013-06-05 03:12:00,
2013-06-04 21:22:00,50.0,37.0,30.23,West,270,10.0,14.0,60,0.00,,,0.00,,2013-06-05 03:22:00,
2013-06-04 21:32:00,50.0,36.0,30.23,West,276,12.0,15.0,59,0.00,,,0.00,,2013-06-05 03:32:00,
2013-06-04 21:43:00,50.0,36.0,30.23,West,276,12.0,15.0,59,0.00,,,0.00,,2013-06-05 03:43:00,
2013-06-04 21:53:00,50.0,37.0,30.24,West,263,12.0,16.0,60,0.00,,,0.00,,2013-06-05 03:53:00,
2013-06-04 22:02:00,50.0,37.0,30.24,West,268,12.0,16.0,60,0.00,,,0.00,,2013-06-05 04:02:00,
2013-06-04 22:12:00,50.0,37.0,30.24,West,268,12.0,16.0,60,0.00,,,0.00,,2013-06-05 04:12:00,
2013-06-04 22:22:00,50.0,36.0,30.24,West,277,13.0,16.0,59,0.00,,,0.00,,2013-06-05 04:22:00,
2013-06-04 22:32:00,50.0,37.0,30.24,West,264,10.0,13.0,61,0.00,,,0.00,,2013-06-05 04:32:00,
2013-06-04 22:42:00,50.0,37.0,30.24,West,264,10.0,13.0,61,0.00,,,0.00,,2013-06-05 04:42:00,
2013-06-04 22:53:00,50.0,38.0,30.24,West,265,12.0,19.0,62,0.00,,,0.00,,2013-06-05 04:53:00,
2013-06-04 23:02:00,49.0,37.0,30.25,West,269,13.0,18.0,62,0.00,,,0.00,,2013-06-05 05:02:00,
2013-06-04 23:12:00,49.0,37.0,30.25,West,269,13.0,18.0,62,0.00,,,0.00,,2013-06-05 05:12:00,
2013-06-04 23:22:00,49.0,37.0,30.25,West,261,12.0,15.0,64,0.00,,,0.00,,2013-06-05 05:22:00,
2013-06-04 23:32:00,49.0,38.0,30.25,West,269,5.0,14.0,65,0.00,,,0.00,,2013-06-05 05:32:00,
2013-06-04 23:42:00,49.0,38.0,30.25,West,269,5.0,14.0,65,0.00,,,0.00,,2013-06-05 05:42:00,
2013-06-04 23:52:00,48.0,37.0,30.26,West,277,1.0,5.0,65,0.00,,,0.00,,2013-06-05 05:52:00,